This is the latest recevied weather packets stored in our database for station/object KG7KID-5. If no packets are shown the sender has not sent any weather packets the latest 1 day(s).
| Time | Temp. | Humidity | Pressure | Rain* | Wind** | Luminosity | Snow |
|---|---|---|---|---|---|---|---|
| 1778085642 | 17.78° C | 32% | 931.8 hPa | 0 mm | - | - | - |
| 1778084901 | 17.22° C | 33% | 932 hPa | 0 mm | - | - | - |
| 1778084743 | 17.22° C | 33% | 932 hPa | 0 mm | - | - | - |
| 1778084021 | 17.22° C | 34% | 932 hPa | 0 mm | - | - | - |
| 1778083243 | 16.67° C | 34% | 932 hPa | 0 mm | - | - | - |
| 1778082423 | 16.67° C | 34% | 932.1 hPa | 0 mm | - | - | - |
| 1778081223 | 16.11° C | 37% | 932.2 hPa | 0 mm | - | - | - |
| 1778080432 | 15° C | 39% | 932.3 hPa | 0 mm | - | - | - |
| 1778076122 | 11.11° C | 47% | 932.4 hPa | 0 mm | - | - | - |
| 1778074390 | 9.44° C | 51% | 932.2 hPa | 0 mm | - | - | - |
| 1778074099 | 9.44° C | 52% | 932 hPa | 0 mm | - | - | - |
| 1778074022 | 9.44° C | 52% | 932 hPa | 0 mm | - | - | - |
| 1778055288 | 11.11° C | 47% | 929.7 hPa | 0 mm | - | - | - |
| 1778048279 | 13.89° C | 37% | 929.1 hPa | 0 mm | - | - | - |
| 1778046588 | 15° C | 32% | 928.9 hPa | 0 mm | - | - | - |
| 1778045569 | 15° C | 33% | 928.7 hPa | 0 mm | - | - | - |
| 1778045269 | 15° C | 33% | 928.7 hPa | 0 mm | - | - | - |
| 1778042742 | 16.11° C | 31% | 928.4 hPa | 0 mm | - | - | - |
| 1778042667 | 16.11° C | 31% | 928.4 hPa | 0 mm | - | - | - |
| 1778042367 | 16.11° C | 30% | 928.4 hPa | 0 mm | - | - | - |
| 1778041642 | 16.67° C | 30% | 928.3 hPa | 0 mm | - | - | - |
| 1778040796 | 16.67° C | 30% | 928.1 hPa | 0 mm | - | - | - |
| 1778037496 | 17.22° C | 29% | 927.2 hPa | 0 mm | - | - | - |
| 1778037196 | 17.22° C | 29% | 927.1 hPa | 0 mm | - | - | - |
| 1778036596 | 17.78° C | 29% | 926.9 hPa | 0 mm | - | - | - |
* Rain latest hour (hover to see other rain measurements)
** Current wind speed in m/s (hover to see current wind gust speed)